Terminal Aerodrome Forecast
Issued by NWS Albuquerque, NM

Home | Current Version | Previous Version | Text Only | Print | Product List | Glossary On
Versions: 1 2 3 4 5 6 7 8 9 10 11 12 13
000
FTUS45 KABQ 251740
TAFABQ
TAF
KABQ 251740Z 2518/2618 20006KT P6SM BKN250
     FM252200 20015G23KT P6SM SCT130 BKN250
     FM260200 26012G20KT P6SM SCT120
     FM260500 29010KT P6SM SCT050 SCT110
     FM261600 29012G20KT P6SM SCT050=

USA.gov is the U.S. government's official web portal to all federal, state and local government web resources and services.